createdAt,value
2023-01-08T00:01:10.061Z,56.17
2023-01-08T00:03:56.107Z,55.95
2023-01-08T00:06:41.784Z,55.85
2023-01-08T00:09:27.478Z,55.98
2023-01-08T00:12:13.235Z,55.95
2023-01-08T00:14:59.050Z,55.58
2023-01-08T00:17:44.850Z,55.77
2023-01-08T00:20:30.594Z,55.61
2023-01-08T00:23:18.101Z,56.34
2023-01-08T00:26:06.216Z,56.22
2023-01-08T00:28:51.912Z,56.40
2023-01-08T00:31:37.769Z,56.24
2023-01-08T00:34:23.722Z,56.08
2023-01-08T00:37:09.213Z,56.71
2023-01-08T00:39:55.100Z,56.70
2023-01-08T00:42:40.759Z,56.85
2023-01-08T00:45:28.193Z,56.25
2023-01-08T00:48:14.013Z,56.74
2023-01-08T00:51:02.069Z,56.46
2023-01-08T00:53:47.863Z,55.97
2023-01-08T00:56:33.579Z,56.07
2023-01-08T00:59:19.286Z,55.84
2023-01-08T01:02:05.238Z,56.45
2023-01-08T01:04:51.258Z,56.40
2023-01-08T01:07:37.427Z,56.27
2023-01-08T01:10:23.801Z,56.55
2023-01-08T01:13:10.801Z,56.28
2023-01-08T01:16:00.327Z,56.45
2023-01-08T01:18:46.518Z,56.61
2023-01-08T01:21:33.128Z,56.27
2023-01-08T01:24:19.055Z,56.11
2023-01-08T01:27:04.847Z,56.27
2023-01-08T01:29:50.468Z,56.08
2023-01-08T01:32:36.183Z,56.30
2023-01-08T01:35:21.900Z,56.67
2023-01-08T01:38:07.645Z,56.69
2023-01-08T01:40:53.472Z,56.21
2023-01-08T01:43:41.316Z,56.23
2023-01-08T01:46:38.612Z,56.46
2023-01-08T01:49:24.365Z,56.86
2023-01-08T01:52:10.157Z,56.58
2023-01-08T01:55:00.247Z,56.94
2023-01-08T01:57:52.268Z,56.59
2023-01-08T02:00:38.573Z,56.56
2023-01-08T02:03:27.685Z,56.88
2023-01-08T02:06:35.294Z,57.35
2023-01-08T02:09:29.704Z,56.35
2023-01-08T02:12:26.882Z,57.12
2023-01-08T02:15:13.288Z,56.94
2023-01-08T02:18:06.060Z,56.35
2023-01-08T02:21:10.692Z,57.25
2023-01-08T02:24:14.401Z,57.24
2023-01-08T02:27:01.528Z,56.75
2023-01-08T02:29:48.051Z,56.34
2023-01-08T02:32:37.524Z,56.65
2023-01-08T02:35:23.223Z,56.99
2023-01-08T02:38:14.211Z,56.34
2023-01-08T02:41:10.223Z,56.90
2023-01-08T02:43:57.482Z,56.62
2023-01-08T02:46:43.902Z,56.94
2023-01-08T02:49:33.159Z,56.84
2023-01-08T02:52:19.758Z,56.45
2023-01-08T02:55:05.925Z,56.52
2023-01-08T02:57:52.164Z,56.76
2023-01-08T03:00:38.056Z,57.10
2023-01-08T03:03:26.179Z,57.01
2023-01-08T03:06:14.556Z,56.90
2023-01-08T03:09:00.894Z,57.11
2023-01-08T03:12:02.516Z,56.67
2023-01-08T03:15:04.655Z,56.81
2023-01-08T03:17:53.708Z,56.81
2023-01-08T03:20:39.921Z,57.16
2023-01-08T03:23:26.928Z,57.22
2023-01-08T03:26:16.046Z,57.26
2023-01-08T03:29:03.318Z,56.91
2023-01-08T03:31:50.870Z,56.84
2023-01-08T03:34:38.517Z,57.28
2023-01-08T03:37:28.477Z,57.34
2023-01-08T03:40:22.147Z,57.07
2023-01-08T03:43:07.706Z,56.92
2023-01-08T03:45:57.446Z,56.86
2023-01-08T03:48:44.076Z,56.98
2023-01-08T03:51:44.957Z,57.18
2023-01-08T03:54:34.228Z,56.76
2023-01-08T03:57:20.107Z,56.77
2023-01-08T04:00:06.800Z,56.97
2023-01-08T04:02:52.883Z,57.04
2023-01-08T04:05:38.585Z,56.95
2023-01-08T04:08:24.394Z,56.99
2023-01-08T04:11:10.067Z,56.86
2023-01-08T04:13:56.136Z,57.00
2023-01-08T04:16:42.100Z,56.72
2023-01-08T04:19:27.877Z,57.12
2023-01-08T04:22:13.443Z,57.12
2023-01-08T04:24:59.117Z,56.57
2023-01-08T04:27:44.887Z,56.97
2023-01-08T04:30:31.541Z,56.67
2023-01-08T04:33:23.554Z,56.88
2023-01-08T04:36:10.117Z,56.77
2023-01-08T04:39:00.221Z,56.74
2023-01-08T04:41:49.567Z,57.12
2023-01-08T04:44:36.474Z,57.08
2023-01-08T04:47:24.262Z,56.97
2023-01-08T04:50:21.432Z,57.31
2023-01-08T04:53:07.327Z,56.75
2023-01-08T04:55:53.360Z,56.91
2023-01-08T04:58:40.034Z,56.91
2023-01-08T05:01:27.663Z,56.81
2023-01-08T05:04:13.493Z,57.22
2023-01-08T05:06:59.067Z,56.77
2023-01-08T05:09:44.980Z,56.58
2023-01-08T05:12:30.656Z,56.86
2023-01-08T05:15:16.400Z,57.15
2023-01-08T05:18:04.462Z,56.69
2023-01-08T05:20:50.375Z,57.07
2023-01-08T05:23:36.115Z,57.22
2023-01-08T05:26:21.736Z,57.08
2023-01-08T05:29:10.080Z,57.06
2023-01-08T05:32:04.054Z,56.89
2023-01-08T05:34:50.503Z,56.73
2023-01-08T05:37:36.963Z,57.12
2023-01-08T05:40:23.072Z,56.99
2023-01-08T05:43:09.278Z,57.19
2023-01-08T05:45:58.312Z,57.17
2023-01-08T05:48:47.470Z,57.25
2023-01-08T05:51:33.213Z,56.84
2023-01-08T05:54:18.704Z,56.62
2023-01-08T05:57:04.436Z,56.76
2023-01-08T06:00:01.695Z,57.13
2023-01-08T06:03:03.868Z,57.00
2023-01-08T06:05:50.956Z,56.91
2023-01-08T06:08:36.516Z,57.06
2023-01-08T06:11:22.320Z,56.92
2023-01-08T06:14:07.981Z,57.18
2023-01-08T06:16:53.855Z,56.74
2023-01-08T06:19:39.545Z,57.05
2023-01-08T06:22:25.538Z,57.05
2023-01-08T06:25:11.376Z,57.28
2023-01-08T06:27:57.044Z,57.13
2023-01-08T06:31:04.824Z,57.55
2023-01-08T06:34:01.732Z,57.26
2023-01-08T06:36:47.312Z,57.17
2023-01-08T06:39:32.998Z,57.20
2023-01-08T06:42:18.667Z,57.36
2023-01-08T06:45:04.784Z,57.19
2023-01-08T06:47:50.930Z,56.92
2023-01-08T06:50:36.569Z,57.05
2023-01-08T06:53:22.263Z,57.08
2023-01-08T06:56:10.895Z,56.79
2023-01-08T06:58:56.699Z,56.94
2023-01-08T07:01:42.520Z,56.95
2023-01-08T07:04:28.500Z,57.23
2023-01-08T07:07:14.912Z,56.67
2023-01-08T07:10:00.876Z,57.25
2023-01-08T07:12:46.455Z,57.20
2023-01-08T07:15:32.067Z,57.28
2023-01-08T07:18:17.744Z,57.04
2023-01-08T07:21:04.496Z,57.17
2023-01-08T07:23:50.402Z,57.07
2023-01-08T07:26:36.666Z,56.85
2023-01-08T07:29:22.375Z,56.87
2023-01-08T07:32:07.968Z,57.04
2023-01-08T07:34:54.811Z,57.09
2023-01-08T07:37:42.480Z,56.72
2023-01-08T07:40:28.097Z,56.91
2023-01-08T07:43:14.049Z,57.21
2023-01-08T07:46:02.811Z,57.35
2023-01-08T07:48:48.855Z,57.25
2023-01-08T07:51:34.958Z,56.99
2023-01-08T07:54:21.871Z,56.79
2023-01-08T07:57:07.855Z,57.03
2023-01-08T07:59:53.549Z,57.32
2023-01-08T08:02:39.394Z,57.33
2023-01-08T08:05:25.145Z,57.29
2023-01-08T08:08:12.161Z,57.34
2023-01-08T08:10:58.072Z,57.20
2023-01-08T08:13:45.128Z,57.29
2023-01-08T08:16:31.205Z,57.31
2023-01-08T08:19:16.929Z,57.59
2023-01-08T08:22:02.727Z,57.67
2023-01-08T08:24:48.409Z,57.40
2023-01-08T08:27:34.275Z,57.56
2023-01-08T08:30:20.986Z,57.13
2023-01-08T08:33:07.627Z,56.87
2023-01-08T08:35:53.496Z,57.09
2023-01-08T08:38:40.022Z,57.24
2023-01-08T08:41:26.071Z,57.50
2023-01-08T08:44:11.890Z,57.30
2023-01-08T08:46:58.053Z,57.55
2023-01-08T08:49:43.746Z,57.55
2023-01-08T08:52:30.979Z,57.32
2023-01-08T08:55:17.922Z,57.69
2023-01-08T08:58:06.933Z,57.27
2023-01-08T09:00:52.895Z,57.25
2023-01-08T09:03:38.748Z,57.35
2023-01-08T09:06:27.625Z,57.50
2023-01-08T09:09:15.546Z,57.31
2023-01-08T09:12:01.447Z,57.49
2023-01-08T09:14:50.223Z,57.99
2023-01-08T09:17:37.021Z,57.97
2023-01-08T09:20:24.797Z,57.72
2023-01-08T09:23:10.895Z,57.58
2023-01-08T09:26:01.908Z,57.87
2023-01-08T09:28:48.087Z,57.81
2023-01-08T10:05:38.059Z,55.84
2023-01-08T10:08:23.966Z,55.58
2023-01-08T10:11:11.091Z,55.18
2023-01-08T10:13:57.758Z,54.93
2023-01-08T10:16:43.980Z,54.95
2023-01-08T10:19:29.873Z,54.70
2023-01-08T10:22:18.131Z,54.40
2023-01-08T10:25:07.959Z,54.67
2023-01-08T10:28:23.391Z,54.62
2023-01-08T10:31:15.497Z,54.27
2023-01-08T10:34:55.277Z,54.08
2023-01-08T10:37:42.670Z,53.90
2023-01-08T10:40:30.851Z,54.40
2023-01-08T10:43:49.828Z,53.80
2023-01-08T10:46:47.748Z,53.68
2023-01-08T10:49:39.334Z,53.68
2023-01-08T10:52:29.530Z,53.37
2023-01-08T10:55:48.221Z,52.96
2023-01-08T10:58:43.673Z,52.80
2023-01-08T11:02:11.555Z,51.77
2023-01-08T11:04:57.460Z,52.87
2023-01-08T11:07:56.963Z,51.84
2023-01-08T11:10:42.905Z,52.38
2023-01-08T11:13:29.709Z,52.38
2023-01-08T11:16:15.688Z,52.47
2023-01-08T11:19:01.621Z,52.30
2023-01-08T11:21:58.547Z,51.38
2023-01-08T11:24:44.901Z,51.99
2023-01-08T11:27:39.830Z,51.59
2023-01-08T11:30:27.421Z,51.36
2023-01-08T11:33:19.075Z,51.22
2023-01-08T11:36:18.776Z,50.85
2023-01-08T11:39:05.932Z,50.83
2023-01-08T11:42:12.924Z,50.25
2023-01-08T11:45:12.078Z,49.59
2023-01-08T11:48:06.272Z,50.69
2023-01-08T11:51:03.681Z,50.67
2023-01-08T11:54:33.179Z,50.35
2023-01-08T11:57:46.926Z,50.23
2023-01-08T12:00:59.179Z,50.19
2023-01-08T12:03:55.920Z,49.64
2023-01-08T12:07:14.223Z,48.24
2023-01-08T12:10:46.665Z,46.78
2023-01-08T12:14:02.506Z,47.02
2023-01-08T12:17:24.952Z,46.71
2023-01-08T12:20:50.817Z,48.68
2023-01-08T12:24:01.633Z,49.29
2023-01-08T12:27:17.134Z,47.73
2023-01-08T12:30:15.215Z,48.62
2023-01-08T12:33:17.182Z,48.39
2023-01-08T12:36:10.094Z,47.87
2023-01-08T12:39:00.877Z,48.43
2023-01-08T12:41:47.290Z,48.25
2023-01-08T12:44:34.568Z,48.30
2023-01-08T12:47:25.669Z,47.96
2023-01-08T12:50:35.913Z,47.13
2023-01-08T12:53:30.734Z,46.03
2023-01-08T12:56:22.491Z,46.74
2023-01-08T12:59:34.480Z,45.70
2023-01-08T13:02:49.610Z,46.25
2023-01-08T13:05:37.173Z,47.58
2023-01-08T13:08:26.155Z,47.73
2023-01-08T13:11:12.937Z,48.17
2023-01-08T13:14:01.591Z,48.47
2023-01-08T13:16:47.681Z,48.50
2023-01-08T13:19:45.766Z,48.37
2023-01-08T13:22:34.220Z,48.89
2023-01-08T13:25:20.162Z,49.39
2023-01-08T13:28:47.936Z,49.74
2023-01-08T13:31:40.995Z,50.07
2023-01-08T13:34:42.280Z,49.44
2023-01-08T13:37:28.561Z,49.48
2023-01-08T13:40:46.420Z,48.34
2023-01-08T13:43:39.156Z,48.31
2023-01-08T13:46:25.272Z,48.65
2023-01-08T13:49:45.227Z,47.58
2023-01-08T13:52:39.947Z,46.83
2023-01-08T13:55:31.776Z,44.80
2023-01-08T13:58:26.668Z,46.54
2023-01-08T14:01:13.490Z,46.37
2023-01-08T14:03:59.350Z,46.23
2023-01-08T14:06:45.209Z,46.24
2023-01-08T14:09:33.207Z,45.64
2023-01-08T14:12:23.268Z,45.44
2023-01-08T14:15:25.216Z,43.48
2023-01-08T14:18:13.980Z,45.57
2023-01-08T14:20:59.978Z,45.18
2023-01-08T14:23:47.492Z,45.63
2023-01-08T14:26:38.832Z,46.05
2023-01-08T14:29:36.675Z,46.54
2023-01-08T14:32:29.354Z,46.73
2023-01-08T14:35:18.219Z,46.93
2023-01-08T14:38:05.738Z,46.90
2023-01-08T14:41:02.487Z,47.07
2023-01-08T14:43:56.535Z,47.57
2023-01-08T14:46:46.157Z,47.52
2023-01-08T14:49:34.675Z,47.64
2023-01-08T14:52:21.284Z,48.07
2023-01-08T14:55:07.280Z,48.11
2023-01-08T14:57:55.045Z,48.09
2023-01-08T15:00:53.357Z,47.78
2023-01-08T15:03:42.655Z,48.01
2023-01-08T15:06:31.127Z,48.39
2023-01-08T15:09:34.700Z,48.14
2023-01-08T15:12:30.695Z,48.29
2023-01-08T15:15:23.567Z,48.45
2023-01-08T15:18:12.242Z,48.41
2023-01-08T15:20:58.398Z,48.36
2023-01-08T15:23:50.627Z,48.49
2023-01-08T15:26:43.319Z,49.11
2023-01-08T15:29:34.615Z,48.75
2023-01-08T15:32:22.500Z,48.99
2023-01-08T15:35:16.263Z,49.22
2023-01-08T15:38:02.202Z,48.97
2023-01-08T15:40:48.481Z,49.22
2023-01-08T15:43:34.461Z,48.96
2023-01-08T15:46:20.177Z,48.94
2023-01-08T15:49:06.038Z,49.42
2023-01-08T15:51:52.370Z,49.67
2023-01-08T15:54:38.479Z,49.15
2023-01-08T15:57:24.704Z,49.60
2023-01-08T16:00:13.085Z,49.19
2023-01-08T16:03:00.083Z,49.69
2023-01-08T16:05:46.066Z,49.51
2023-01-08T16:08:31.761Z,49.73
2023-01-08T16:11:18.128Z,50.29
2023-01-08T16:14:04.038Z,50.00
2023-01-08T16:16:49.946Z,50.34
2023-01-08T16:19:35.915Z,50.33
2023-01-08T16:22:21.802Z,50.25
2023-01-08T16:25:09.320Z,50.32
2023-01-08T16:27:55.161Z,50.41
2023-01-08T16:30:42.712Z,50.26
2023-01-08T16:33:28.927Z,50.42
2023-01-08T16:36:14.900Z,50.06
2023-01-08T16:39:00.796Z,50.01
2023-01-08T16:41:49.526Z,50.53
2023-01-08T16:44:36.553Z,50.21
2023-01-08T16:47:22.578Z,50.48
2023-01-08T16:50:10.249Z,50.63
2023-01-08T16:52:55.873Z,50.73
2023-01-08T16:55:41.840Z,50.63
2023-01-08T16:58:29.510Z,51.04
2023-01-08T17:01:15.576Z,50.92
2023-01-08T17:04:01.904Z,50.49
2023-01-08T17:06:48.039Z,50.81
2023-01-08T17:09:34.014Z,51.38
2023-01-08T17:12:22.643Z,50.93
2023-01-08T17:15:08.700Z,50.90
2023-01-08T17:17:55.134Z,51.03
2023-01-08T17:20:41.171Z,51.31
2023-01-08T17:23:29.658Z,50.93
2023-01-08T17:26:19.874Z,51.31
2023-01-08T17:29:05.800Z,51.38
2023-01-08T17:31:51.584Z,51.32
2023-01-08T17:34:37.344Z,51.78
2023-01-08T17:37:22.918Z,51.59
2023-01-08T17:40:09.448Z,52.13
2023-01-08T17:42:55.808Z,52.00
2023-01-08T17:45:41.623Z,51.68
2023-01-08T17:48:27.418Z,51.58
2023-01-08T17:51:14.456Z,52.02
2023-01-08T17:54:01.408Z,52.07
2023-01-08T17:56:48.984Z,51.79
2023-01-08T17:59:35.124Z,51.85
2023-01-08T18:02:21.157Z,51.69
2023-01-08T18:05:07.699Z,52.18
2023-01-08T18:07:53.351Z,52.13
2023-01-08T18:10:40.099Z,52.35
2023-01-08T18:13:25.781Z,52.32
2023-01-08T18:16:13.664Z,52.31
2023-01-08T18:19:00.111Z,52.10
2023-01-08T18:21:47.212Z,51.96
2023-01-08T18:24:33.891Z,52.62
2023-01-08T18:27:19.641Z,52.47
2023-01-08T18:30:06.030Z,52.54
2023-01-08T18:32:51.994Z,52.32
2023-01-08T18:35:37.691Z,52.95
2023-01-08T18:38:23.381Z,52.59
2023-01-08T18:41:10.632Z,53.07
2023-01-08T18:43:56.586Z,52.97
2023-01-08T18:46:42.586Z,52.83
2023-01-08T18:49:28.697Z,52.88
2023-01-08T18:52:15.356Z,52.69
2023-01-08T18:55:00.931Z,52.62
2023-01-08T18:57:49.042Z,53.15
2023-01-08T19:00:35.521Z,52.81
2023-01-08T19:03:22.810Z,52.87
2023-01-08T19:06:17.001Z,52.94
2023-01-08T19:09:04.039Z,53.19
2023-01-08T19:11:49.869Z,53.20
2023-01-08T19:14:35.719Z,53.00
2023-01-08T19:17:21.727Z,53.36
2023-01-08T19:20:08.333Z,53.26
2023-01-08T19:22:54.184Z,53.40
2023-01-08T19:25:40.657Z,53.28
2023-01-08T19:28:26.495Z,53.12
2023-01-08T19:31:15.094Z,53.23
2023-01-08T19:34:01.894Z,53.34
2023-01-08T19:36:48.109Z,53.52
2023-01-08T19:39:34.076Z,53.66
2023-01-08T19:42:38.435Z,53.38
2023-01-08T19:45:24.751Z,53.45
2023-01-08T19:48:10.797Z,53.43
2023-01-08T19:50:56.773Z,53.54
2023-01-08T19:53:42.745Z,53.78
2023-01-08T19:56:29.325Z,53.47
2023-01-08T19:59:15.136Z,53.78
2023-01-08T20:02:01.099Z,53.54
2023-01-08T20:04:47.318Z,53.51
2023-01-08T20:07:33.333Z,54.06
2023-01-08T20:10:19.184Z,53.96
2023-01-08T20:13:05.162Z,54.09
2023-01-08T20:15:57.587Z,53.98
2023-01-08T20:18:44.229Z,54.23
2023-01-08T20:21:33.859Z,53.86
2023-01-08T20:24:19.725Z,54.00
2023-01-08T20:27:07.375Z,54.23
2023-01-08T20:29:53.369Z,54.08
2023-01-08T20:32:39.139Z,53.67
2023-01-08T20:35:24.911Z,53.90
2023-01-08T20:38:10.431Z,54.16
2023-01-08T20:40:56.288Z,53.84
2023-01-08T20:43:41.990Z,54.06
2023-01-08T20:46:28.868Z,54.32
2023-01-08T20:49:16.654Z,54.48
2023-01-08T20:52:04.660Z,54.05
2023-01-08T20:54:53.071Z,54.79
2023-01-08T20:57:39.196Z,54.25
2023-01-08T21:00:25.894Z,54.23
2023-01-08T21:03:12.063Z,54.31
2023-01-08T21:05:58.130Z,54.30
2023-01-08T21:08:45.909Z,54.25
2023-01-08T21:11:31.971Z,54.38
2023-01-08T21:14:18.016Z,54.93
2023-01-08T21:17:03.771Z,54.64
2023-01-08T21:19:49.414Z,55.00
2023-01-08T21:22:35.292Z,54.67
2023-01-08T21:25:21.176Z,54.77
2023-01-08T21:28:08.269Z,54.92
2023-01-08T21:30:54.398Z,54.73
2023-01-08T21:33:41.650Z,54.65
2023-01-08T21:36:29.603Z,55.05
2023-01-08T21:39:15.466Z,55.04
2023-01-08T21:42:19.896Z,55.21
2023-01-08T21:45:24.952Z,54.90
2023-01-08T21:48:12.997Z,54.86
2023-01-08T21:50:59.250Z,54.77
2023-01-08T21:53:45.229Z,54.71
2023-01-08T21:56:31.275Z,55.02
2023-01-08T21:59:18.073Z,54.86
2023-01-08T22:02:05.089Z,54.93
2023-01-08T22:04:54.777Z,54.97
2023-01-08T22:07:40.727Z,55.33
2023-01-08T22:10:26.590Z,55.05
2023-01-08T22:13:12.427Z,55.22
2023-01-08T22:16:03.497Z,55.47
2023-01-08T22:18:49.393Z,55.06
2023-01-08T22:21:35.403Z,55.28
2023-01-08T22:24:21.253Z,54.93
2023-01-08T22:27:08.276Z,55.02
2023-01-08T22:29:54.658Z,54.92
2023-01-08T22:32:40.514Z,55.79
2023-01-08T22:35:27.681Z,55.42
2023-01-08T22:38:13.973Z,55.25
2023-01-08T22:40:59.763Z,55.62
2023-01-08T22:43:45.599Z,55.89
2023-01-08T22:46:31.480Z,55.84
2023-01-08T22:49:17.349Z,55.96
2023-01-08T22:52:03.371Z,55.44
2023-01-08T22:54:49.226Z,55.17
2023-01-08T22:57:35.133Z,55.88
2023-01-08T23:00:20.860Z,55.77
2023-01-08T23:03:07.153Z,55.34
2023-01-08T23:06:02.975Z,55.82
2023-01-08T23:08:49.331Z,55.68
2023-01-08T23:11:35.284Z,55.05
2023-01-08T23:14:20.930Z,55.29
2023-01-08T23:17:07.156Z,55.73
2023-01-08T23:19:53.030Z,55.87
2023-01-08T23:22:38.988Z,55.30
2023-01-08T23:25:24.903Z,55.25
2023-01-08T23:28:10.480Z,55.64
2023-01-08T23:30:56.178Z,55.45
2023-01-08T23:33:42.181Z,55.28
2023-01-08T23:36:27.924Z,55.19
2023-01-08T23:39:13.640Z,55.30
2023-01-08T23:41:59.375Z,55.63
2023-01-08T23:44:44.954Z,55.79
2023-01-08T23:47:30.720Z,55.82
2023-01-08T23:50:16.657Z,56.15
2023-01-08T23:53:02.885Z,55.60
2023-01-08T23:55:48.766Z,55.79
2023-01-08T23:58:34.636Z,55.59
